Time;durP1;ratioP1;P1;durP2;ratioP2;P2;SDS_P1;SDS_P2;PMS_P1;PMS_P2;Temp;Humidity;BMP_temperature;BMP_pressure;BME280_temperature;BME280_humidity;BME280_pressure;Samples;Min_cycle;Max_cycle;Signal;HPM_P1;HPM_P2
2022/10/16 00:01:51;;;;;;;19.40;13.30;;;;;;;4.78;100.00;98042.75;108038;1258;70600;-82
2022/10/16 00:04:20;;;;;;;17.50;12.00;;;;;;;4.76;100.00;98043.18;107977;1266;68495;-81
2022/10/16 00:06:50;;;;;;;19.40;12.70;;;;;;;4.76;100.00;98041.63;107816;1266;68495;-82
2022/10/16 00:09:20;;;;;;;20.20;13.00;;;;;;;4.77;100.00;98046.23;107887;1266;59682;-82
2022/10/16 00:11:49;;;;;;;22.10;15.90;;;;;;;4.78;100.00;98048.44;107861;1262;59721;-82
2022/10/16 00:14:18;;;;;;;23.60;14.90;;;;;;;4.76;100.00;98054.04;107877;1265;70555;-81
2022/10/16 00:16:48;;;;;;;24.10;15.80;;;;;;;4.76;100.00;98056.98;107864;1267;68383;-82
2022/10/16 00:19:17;;;;;;;27.20;17.00;;;;;;;4.75;100.00;98054.45;107787;1269;69144;-82
2022/10/16 00:21:46;;;;;;;20.60;13.70;;;;;;;4.70;100.00;98054.64;107813;1267;59683;-77
2022/10/16 00:24:15;;;;;;;14.40;10.10;;;;;;;4.58;100.00;98057.15;107970;1266;59642;-82
2022/10/16 00:26:49;;;;;;;20.30;12.40;;;;;;;4.49;100.00;98060.09;107865;1266;71693;-82
2022/10/16 00:29:18;;;;;;;28.20;17.60;;;;;;;4.41;100.00;98063.33;107963;1266;70007;-82
2022/10/16 00:31:48;;;;;;;24.20;17.30;;;;;;;4.34;100.00;98066.36;107845;1262;68520;-82
2022/10/16 00:34:19;;;;;;;21.20;14.00;;;;;;;4.29;100.00;98067.59;107825;1263;59739;-82
2022/10/16 00:36:49;;;;;;;20.00;12.60;;;;;;;4.25;100.00;98067.73;108089;1261;59759;-82
2022/10/16 00:39:19;;;;;;;21.90;15.10;;;;;;;4.23;100.00;98068.16;107819;1262;70607;-82
2022/10/16 00:41:48;;;;;;;27.90;17.00;;;;;;;4.24;100.00;98071.22;108020;1263;68379;-82
2022/10/16 00:44:45;;;;;;;25.30;14.80;;;;;;;4.25;100.00;98075.33;108026;1263;69085;-82
2022/10/16 00:47:26;;;;;;;20.90;14.20;;;;;;;4.26;100.00;98072.02;107883;1267;59699;-82
2022/10/16 00:50:07;;;;;;;19.50;13.10;;;;;;;4.26;100.00;98073.05;107813;1262;59733;-82
2022/10/16 00:52:41;;;;;;;20.70;14.30;;;;;;;4.26;100.00;98070.81;107872;1264;71417;-83
2022/10/16 00:55:12;;;;;;;18.70;12.10;;;;;;;4.25;100.00;98067.03;107980;1263;69176;-83
2022/10/16 00:57:44;;;;;;;17.20;11.80;;;;;;;4.23;100.00;98071.40;107837;1267;68197;-83
2022/10/16 01:00:17;;;;;;;22.20;13.60;;;;;;;4.24;100.00;98067.93;107839;1259;59860;-82
2022/10/16 01:02:58;;;;;;;17.00;12.20;;;;;;;4.23;100.00;98065.73;107852;1263;59771;-82
2022/10/16 01:05:46;;;;;;;18.80;11.90;;;;;;;4.21;100.00;98065.81;108018;1266;69645;-82
2022/10/16 01:08:27;;;;;;;18.10;12.50;;;;;;;4.21;100.00;98069.63;107891;1261;68504;-82
2022/10/16 01:11:09;;;;;;;19.60;11.80;;;;;;;4.19;100.00;98069.31;107683;1266;69261;-82
2022/10/16 01:13:46;;;;;;;15.10;10.40;;;;;;;4.17;99.67;98067.02;107820;1269;59719;-82
2022/10/16 01:16:32;;;;;;;16.60;11.20;;;;;;;4.15;97.44;98067.23;107854;1266;59757;-82
2022/10/16 01:19:31;;;;;;;12.90;9.70;;;;;;;4.11;97.77;98069.98;107816;1263;70623;-78
2022/10/16 01:22:03;;;;;;;18.90;12.60;;;;;;;4.07;97.03;98072.52;107847;1267;68378;-83
2022/10/16 01:24:50;;;;;;;14.20;10.20;;;;;;;4.07;98.83;98076.32;107823;1267;69251;-83
2022/10/16 01:27:27;;;;;;;13.90;8.10;;;;;;;4.06;98.08;98073.40;107868;1266;59730;-83
2022/10/16 01:30:35;;;;;;;16.00;10.10;;;;;;;4.07;96.89;98076.65;107848;1266;59792;-83
2022/10/16 01:33:10;;;;;;;28.60;14.90;;;;;;;4.08;97.70;98074.20;107743;1262;70779;-83
2022/10/16 01:35:52;;;;;;;15.00;11.50;;;;;;;4.06;99.88;98073.75;107871;1266;69582;-83
2022/10/16 01:38:31;;;;;;;17.60;11.70;;;;;;;4.02;100.00;98080.64;107783;1266;69298;-83
2022/10/16 01:41:15;;;;;;;17.40;12.30;;;;;;;3.99;100.00;98077.66;107878;1263;59697;-83
2022/10/16 01:43:56;;;;;;;19.50;13.00;;;;;;;3.96;100.00;98080.50;107695;1266;59720;-83
2022/10/16 01:46:30;;;;;;;17.20;12.80;;;;;;;3.95;100.00;98080.02;107939;1266;70561;-82
2022/10/16 01:49:03;;;;;;;17.20;12.30;;;;;;;3.95;100.00;98082.63;108134;1262;68196;-82
2022/10/16 01:51:34;;;;;;;19.60;13.70;;;;;;;3.93;100.00;98085.96;108074;1260;69130;-83
2022/10/16 01:54:08;;;;;;;24.90;15.30;;;;;;;3.91;100.00;98087.22;108219;1262;59656;-82
2022/10/16 01:56:39;;;;;;;21.90;13.30;;;;;;;3.89;100.00;98088.36;107969;1266;59766;-83
2022/10/16 01:59:17;;;;;;;22.00;13.80;;;;;;;3.88;100.00;98085.78;108004;1261;70457;-83
2022/10/16 02:01:54;;;;;;;21.80;13.80;;;;;;;3.87;100.00;98087.18;107940;1263;69158;-81
2022/10/16 02:04:39;;;;;;;16.90;12.20;;;;;;;3.87;100.00;98092.04;107865;1270;69210;-79
2022/10/16 02:07:12;;;;;;;18.10;12.10;;;;;;;3.89;100.00;98088.00;107881;1262;59733;-84
2022/10/16 02:09:43;;;;;;;16.40;11.40;;;;;;;3.88;100.00;98087.67;107692;1267;59704;-84
2022/10/16 02:12:30;;;;;;;15.60;11.30;;;;;;;3.85;100.00;98091.06;107697;1269;71336;-83
2022/10/16 02:15:01;;;;;;;13.80;9.40;;;;;;;3.78;100.00;98090.96;107906;1266;69172;-82
2022/10/16 02:17:31;;;;;;;15.90;10.90;;;;;;;3.74;100.00;98095.91;107950;1266;69257;-83
2022/10/16 02:20:01;;;;;;;;;;;;;;;3.74;100.00;98099.72;107847;1267;59727;-83
2022/10/16 02:22:36;;;;;;;13.00;9.40;;;;;;;3.72;99.91;98102.55;107709;1266;59652;-81
2022/10/16 02:25:22;;;;;;;15.60;11.30;;;;;;;3.71;99.52;98101.23;107840;1264;71457;-82
2022/10/16 02:28:22;;;;;;;14.60;11.00;;;;;;;3.67;100.00;98104.12;107980;1265;69107;-82
2022/10/16 02:31:04;;;;;;;13.90;9.40;;;;;;;3.61;100.00;98103.14;107875;1266;69299;-81
2022/10/16 02:33:38;;;;;;;12.50;9.60;;;;;;;3.57;99.94;98106.32;107667;1266;59747;-82
2022/10/16 02:36:10;;;;;;;19.60;13.70;;;;;;;3.59;98.89;98107.98;107978;1267;59694;-82
2022/10/16 02:38:45;;;;;;;14.50;10.70;;;;;;;3.60;99.47;98109.86;107871;1263;71268;-82
2022/10/16 02:41:16;;;;;;;11.60;9.30;;;;;;;3.59;98.74;98111.95;107888;1266;68405;-82
2022/10/16 02:43:46;;;;;;;17.20;12.50;;;;;;;3.58;98.98;98113.71;107968;1267;69258;-82
2022/10/16 02:46:19;;;;;;;15.90;12.10;;;;;;;3.57;100.00;98118.57;107883;1269;59677;-84
2022/10/16 02:48:51;;;;;;;17.70;13.70;;;;;;;3.52;100.00;98117.52;107735;1266;59758;-83
2022/10/16 02:51:24;;;;;;;15.60;11.10;;;;;;;3.50;100.00;98122.42;107768;1266;70602;-82
2022/10/16 02:53:55;;;;;;;16.20;10.70;;;;;;;3.47;100.00;98121.85;107803;1266;69185;-82
2022/10/16 02:56:27;;;;;;;15.10;11.70;;;;;;;3.45;100.00;98126.37;107757;1266;68901;-83
2022/10/16 02:58:57;;;;;;;16.80;11.90;;;;;;;3.45;100.00;98129.15;107910;1266;59626;-82
2022/10/16 03:01:29;;;;;;;16.70;11.20;;;;;;;3.43;100.00;98131.28;107797;1267;59777;-78
2022/10/16 03:04:03;;;;;;;15.20;11.40;;;;;;;3.42;100.00;98131.83;107952;1267;71683;-82
2022/10/16 03:06:35;;;;;;;14.60;10.40;;;;;;;3.40;100.00;98132.42;107795;1264;69085;-82
2022/10/16 03:09:06;;;;;;;14.00;10.20;;;;;;;3.38;100.00;98135.77;107842;1267;69235;-83
2022/10/16 03:11:36;;;;;;;13.70;8.90;;;;;;;3.36;100.00;98140.11;107970;1266;59730;-83
2022/10/16 03:14:07;;;;;;;18.00;12.70;;;;;;;3.34;100.00;98139.16;107926;1263;59736;-82
2022/10/16 03:16:39;;;;;;;17.40;11.10;;;;;;;3.28;100.00;98144.84;107853;1266;70591;-82
2022/10/16 03:19:08;;;;;;;16.80;11.40;;;;;;;3.23;100.00;98145.89;107806;1258;69068;-82
2022/10/16 03:21:38;;;;;;;13.50;9.50;;;;;;;3.18;100.00;98151.55;107845;1267;69237;-83
2022/10/16 03:24:09;;;;;;;13.70;10.40;;;;;;;3.15;100.00;98154.94;107960;1267;59748;-83
2022/10/16 03:26:41;;;;;;;13.90;9.90;;;;;;;3.11;100.00;98162.10;107798;1265;59715;-82
2022/10/16 03:29:12;;;;;;;15.90;11.50;;;;;;;3.07;100.00;98161.53;107941;1269;71411;-83
2022/10/16 03:31:45;;;;;;;15.90;11.30;;;;;;;3.05;100.00;98156.75;107919;1267;69123;-82
2022/10/16 03:34:14;;;;;;;16.30;11.60;;;;;;;3.04;100.00;98161.45;107941;1263;68262;-83
2022/10/16 03:36:46;;;;;;;13.60;10.40;;;;;;;3.01;100.00;98164.80;107736;1267;59757;-84
2022/10/16 03:39:18;;;;;;;16.80;10.60;;;;;;;2.99;100.00;98164.70;107936;1266;59693;-83
2022/10/16 03:41:48;;;;;;;11.50;8.20;;;;;;;2.97;100.00;98165.80;108060;1266;70529;-84
2022/10/16 03:44:18;;;;;;;13.50;9.30;;;;;;;2.96;100.00;98165.15;107840;1269;68382;-82
2022/10/16 03:46:49;;;;;;;12.50;9.00;;;;;;;2.95;100.00;98164.65;108050;1266;69249;-79
2022/10/16 03:49:18;;;;;;;13.20;9.30;;;;;;;2.97;99.78;98165.30;107934;1266;59680;-84
2022/10/16 03:51:48;;;;;;;10.10;8.20;;;;;;;3.01;99.08;98167.04;107842;1269;59770;-83
2022/10/16 03:54:20;;;;;;;14.60;10.00;;;;;;;3.05;99.40;98168.64;107952;1255;70669;-83
2022/10/16 03:56:49;;;;;;;18.50;11.30;;;;;;;3.04;100.00;98166.94;108026;1266;69076;-82
2022/10/16 03:59:27;;;;;;;;;;;;;;;3.04;99.47;98169.17;107949;1267;69118;-78
2022/10/16 04:01:57;;;;;;;14.20;9.30;;;;;;;3.04;99.41;98171.77;107973;1266;59752;-83
2022/10/16 04:04:28;;;;;;;11.10;7.80;;;;;;;3.04;100.00;98171.24;108038;1259;59630;-77
2022/10/16 04:06:56;;;;;;;11.50;7.50;;;;;;;3.04;99.57;98172.10;107916;1267;70412;-81
2022/10/16 04:09:26;;;;;;;13.00;10.00;;;;;;;3.04;99.68;98176.77;107921;1263;67454;-81
2022/10/16 04:11:55;;;;;;;16.00;10.30;;;;;;;3.04;100.00;98179.35;107994;1266;68450;-80
2022/10/16 04:14:24;;;;;;;16.00;11.60;;;;;;;3.02;100.00;98181.33;107917;1266;60176;-81
2022/10/16 04:16:53;;;;;;;13.90;9.90;;;;;;;3.00;100.00;98182.05;107930;1267;59753;-81
2022/10/16 04:19:22;;;;;;;12.80;8.70;;;;;;;2.97;100.00;98187.33;107825;1266;71874;-82
2022/10/16 04:21:51;;;;;;;11.50;7.70;;;;;;;2.95;100.00;98187.38;107855;1266;68439;-80
2022/10/16 04:24:20;;;;;;;12.80;8.30;;;;;;;2.93;100.00;98189.01;107837;1269;68452;-81
2022/10/16 04:26:49;;;;;;;10.80;7.80;;;;;;;2.90;100.00;98193.55;107787;1266;59676;-81
2022/10/16 04:29:18;;;;;;;12.90;9.60;;;;;;;2.88;100.00;98195.52;107987;1266;59720;-81
2022/10/16 04:31:46;;;;;;;14.10;9.80;;;;;;;2.86;100.00;98200.55;108072;1266;71210;-81
2022/10/16 04:34:15;;;;;;;12.80;8.80;;;;;;;2.83;100.00;98201.50;107924;1265;68516;-81
2022/10/16 04:36:44;;;;;;;13.20;9.50;;;;;;;2.81;100.00;98202.42;107706;1266;67577;-81
2022/10/16 04:39:12;;;;;;;13.90;10.00;;;;;;;2.78;100.00;98204.41;108115;1263;59717;-78
2022/10/16 04:41:41;;;;;;;15.60;9.50;;;;;;;2.75;100.00;98206.22;108100;1262;59696;-81
2022/10/16 04:44:11;;;;;;;14.30;9.90;;;;;;;2.74;100.00;98208.85;107919;1266;72069;-81
2022/10/16 04:46:47;;;;;;;11.00;7.30;;;;;;;2.75;100.00;98216.03;107948;1262;69169;-81
2022/10/16 04:49:20;;;;;;;14.80;10.00;;;;;;;2.75;100.00;98215.87;108042;1266;69241;-80
2022/10/16 04:51:49;;;;;;;14.50;10.20;;;;;;;2.75;100.00;98218.63;108092;1267;59694;-81
2022/10/16 04:54:17;;;;;;;15.70;12.40;;;;;;;2.72;100.00;98220.05;108550;1259;59720;-81
2022/10/16 04:56:50;;;;;;;17.90;11.60;;;;;;;2.70;100.00;98223.58;108229;1267;71808;-81
2022/10/16 04:59:20;;;;;;;15.20;10.40;;;;;;;2.68;100.00;98229.48;107960;1265;69395;-81
2022/10/16 05:01:51;;;;;;;13.90;10.30;;;;;;;2.67;100.00;98234.83;107822;1266;67618;-76
2022/10/16 05:04:25;;;;;;;13.20;10.00;;;;;;;2.68;100.00;98235.16;108082;1267;60135;-80
2022/10/16 05:06:54;;;;;;;15.50;10.30;;;;;;;2.75;100.00;98232.91;108001;1266;59677;-80
2022/10/16 05:09:22;;;;;;;20.00;12.80;;;;;;;2.82;100.00;98236.48;108062;1266;71412;-81
2022/10/16 05:11:51;;;;;;;20.90;14.20;;;;;;;2.86;100.00;98238.27;108021;1266;69277;-81
2022/10/16 05:14:19;;;;;;;19.90;14.10;;;;;;;2.89;100.00;98238.02;108018;1267;68442;-81
2022/10/16 05:16:48;;;;;;;26.90;15.50;;;;;;;2.93;100.00;98241.85;107858;1267;59760;-77
2022/10/16 05:19:17;;;;;;;18.70;12.00;;;;;;;2.96;100.00;98240.91;107969;1266;59712;-80
2022/10/16 05:21:55;;;;;;;18.10;12.50;;;;;;;3.01;100.00;98246.61;108058;1266;71744;-78
2022/10/16 05:24:24;;;;;;;19.60;12.60;;;;;;;3.06;100.00;98249.90;107927;1266;69330;-80
2022/10/16 05:26:53;;;;;;;17.60;11.00;;;;;;;3.15;100.00;98249.83;107922;1262;69408;-78
2022/10/16 05:29:22;;;;;;;15.50;10.80;;;;;;;3.28;100.00;98248.72;108093;1263;59694;-78
2022/10/16 05:31:52;;;;;;;18.20;12.50;;;;;;;3.48;100.00;98248.64;107929;1267;60170;-77
2022/10/16 05:34:21;;;;;;;22.30;13.80;;;;;;;3.72;100.00;98249.64;107617;1258;529105;-78
2022/10/16 05:36:50;;;;;;;28.20;17.60;;;;;;;3.98;100.00;98248.93;107953;1271;69446;-79
2022/10/16 05:39:18;;;;;;;31.40;20.90;;;;;;;4.17;100.00;98256.58;107966;1262;69174;-74
2022/10/16 05:41:49;;;;;;;31.40;21.40;;;;;;;4.32;100.00;98258.49;108045;1263;59749;-81
2022/10/16 05:44:17;;;;;;;;;;;;;;;4.47;100.00;98265.05;107997;1266;59773;-81
2022/10/16 05:46:47;;;;;;;38.00;21.50;;;;;;;4.54;100.00;98265.84;108053;1263;71976;-81
2022/10/16 05:49:15;;;;;;;30.40;19.60;;;;;;;4.61;100.00;98267.50;107880;1267;68726;-81
2022/10/16 05:51:44;;;;;;;43.30;28.80;;;;;;;4.63;98.47;98269.69;107903;1268;69927;-80
2022/10/16 05:54:13;;;;;;;41.80;29.70;;;;;;;4.60;96.86;98268.57;107879;1266;59761;-80
2022/10/16 05:56:41;;;;;;;42.80;28.30;;;;;;;4.61;96.56;98270.08;108093;1264;59633;-79
2022/10/16 05:59:10;;;;;;;43.40;29.20;;;;;;;4.65;97.00;98275.14;108051;1266;71387;-78
2022/10/16 06:01:38;;;;;;;32.70;22.90;;;;;;;4.68;97.15;98279.19;107616;1267;68988;-80
2022/10/16 06:04:09;;;;;;;35.40;24.50;;;;;;;4.72;96.94;98282.30;107937;1271;69752;-80
2022/10/16 06:06:38;;;;;;;39.30;29.40;;;;;;;4.93;97.31;98285.38;107869;1267;59749;-80
2022/10/16 06:09:07;;;;;;;34.80;25.20;;;;;;;5.20;96.16;98284.88;107688;1264;59755;-80
2022/10/16 06:11:36;;;;;;;32.30;25.10;;;;;;;5.53;95.35;98281.88;107740;1264;69723;-80
2022/10/16 06:14:06;;;;;;;31.00;20.80;;;;;;;5.89;94.85;98283.27;107845;1267;69129;-79
2022/10/16 06:16:36;;;;;;;;;;;;;;;6.31;96.31;98276.02;107748;1264;69114;-79
2022/10/16 06:19:09;;;;;;;24.80;18.70;;;;;;;6.82;94.63;98282.50;107836;1267;59735;-79
2022/10/16 06:21:37;;;;;;;24.40;17.40;;;;;;;7.23;90.19;98276.88;107737;1267;59622;-79
2022/10/16 06:24:06;;;;;;;21.00;15.80;;;;;;;7.66;90.79;98276.42;107838;1266;71361;-79
2022/10/16 06:26:34;;;;;;;24.60;18.40;;;;;;;8.04;87.29;98276.83;107779;1267;68309;-79
2022/10/16 06:29:03;;;;;;;22.20;18.50;;;;;;;8.54;88.01;98276.32;107770;1266;68498;-79
2022/10/16 06:31:33;;;;;;;22.20;17.50;;;;;;;8.92;82.72;98274.18;107743;1268;59730;-79
2022/10/16 06:34:03;;;;;;;21.00;16.90;;;;;;;9.24;80.89;98279.45;107800;1271;59689;-79
2022/10/16 06:36:32;;;;;;;18.00;15.40;;;;;;;9.67;81.53;98281.98;107755;1266;71380;-78
2022/10/16 06:39:00;;;;;;;21.70;13.70;;;;;;;10.01;78.20;98282.68;107770;1270;69221;-79
2022/10/16 06:41:29;;;;;;;19.90;16.50;;;;;;;10.42;78.15;98290.80;107748;1266;69481;-78
2022/10/16 06:44:05;;;;;;;19.70;15.30;;;;;;;10.77;77.89;98294.67;107748;1267;59765;-79
2022/10/16 06:46:34;;;;;;;19.20;15.90;;;;;;;11.24;81.27;98300.54;107773;1266;59677;-79
2022/10/16 06:49:04;;;;;;;22.00;17.20;;;;;;;11.44;71.54;98298.77;107824;1266;71401;-79
2022/10/16 06:51:34;;;;;;;17.80;15.50;;;;;;;11.75;72.74;98302.42;107759;1266;68279;-78
2022/10/16 06:54:08;;;;;;;16.50;12.00;;;;;;;11.99;71.18;98303.57;107635;1267;69889;-79
2022/10/16 06:56:37;;;;;;;14.80;13.30;;;;;;;11.96;70.59;98306.70;107827;1263;60115;-78
2022/10/16 06:59:06;;;;;;;14.90;13.40;;;;;;;11.94;70.51;98305.63;107858;1266;59735;-78
2022/10/16 07:01:34;;;;;;;21.10;19.00;;;;;;;12.15;69.97;98305.16;107766;1267;70569;-78
2022/10/16 07:04:03;;;;;;;14.40;12.90;;;;;;;12.49;69.88;98306.72;107823;1266;69171;-78
2022/10/16 07:06:33;;;;;;;13.20;11.90;;;;;;;12.55;67.67;98308.40;107787;1266;68564;-78
2022/10/16 07:09:05;;;;;;;9.50;8.40;;;;;;;12.83;68.38;98312.34;107965;1266;59684;-77
2022/10/16 07:11:34;;;;;;;23.30;21.10;;;;;;;12.86;66.79;98314.77;107703;1267;59772;-77
2022/10/16 07:14:04;;;;;;;11.40;9.60;;;;;;;13.08;66.75;98314.99;107797;1267;71637;-78
2022/10/16 07:16:32;;;;;;;9.10;7.90;;;;;;;13.26;65.93;98319.91;107747;1267;69207;-78
2022/10/16 07:19:02;;;;;;;8.30;7.40;;;;;;;13.40;64.79;98323.64;107893;1267;69380;-77
2022/10/16 07:21:36;;;;;;;9.70;8.00;;;;;;;13.52;64.15;98321.41;107793;1264;59674;-77
2022/10/16 07:24:07;;;;;;;14.50;13.20;;;;;;;14.09;62.84;98321.70;107649;1267;59676;-78
2022/10/16 07:26:38;;;;;;;13.50;12.10;;;;;;;14.24;61.42;98322.23;107813;1266;70655;-77
2022/10/16 07:29:13;;;;;;;8.00;7.10;;;;;;;14.76;61.63;98323.59;108013;1266;68011;-79
2022/10/16 07:31:42;;;;;;;9.10;7.50;;;;;;;14.96;59.07;98326.16;107852;1269;69329;-77
2022/10/16 07:34:13;;;;;;;9.20;8.00;;;;;;;14.92;58.74;98326.09;107752;1268;59762;-76
2022/10/16 07:36:42;;;;;;;10.20;7.90;;;;;;;15.45;58.08;98325.53;107622;1270;59659;-75
2022/10/16 07:39:11;;;;;;;9.50;7.10;;;;;;;15.70;56.91;98323.77;107811;1267;71400;-76
2022/10/16 07:41:39;;;;;;;10.80;8.30;;;;;;;15.82;56.82;98320.13;107807;1266;68993;-76
2022/10/16 07:44:08;;;;;;;12.80;11.50;;;;;;;16.12;56.11;98317.77;108004;1266;69695;-76
2022/10/16 07:46:37;;;;;;;9.00;6.90;;;;;;;16.31;55.29;98317.66;107901;1267;59750;-76
2022/10/16 07:49:05;;;;;;;7.40;6.50;;;;;;;16.53;54.77;98313.38;108112;1263;59771;-76
2022/10/16 07:51:34;;;;;;;8.20;6.70;;;;;;;17.30;53.46;98314.64;107890;1267;70473;-77
2022/10/16 07:54:02;;;;;;;7.60;6.30;;;;;;;17.49;51.50;98314.55;107760;1267;69852;-77
2022/10/16 07:56:32;;;;;;;8.20;6.10;;;;;;;17.60;49.91;98308.67;107848;1264;69275;-76
2022/10/16 07:59:01;;;;;;;7.80;6.90;;;;;;;17.69;49.58;98310.66;107839;1267;59677;-76
2022/10/16 08:01:29;;;;;;;7.30;6.50;;;;;;;17.67;50.05;98315.58;107877;1267;59746;-76
2022/10/16 08:03:58;;;;;;;7.30;6.10;;;;;;;17.52;50.10;98317.29;107823;1267;71380;-76
2022/10/16 08:06:26;;;;;;;8.50;6.20;;;;;;;17.69;50.66;98313.83;107799;1267;69712;-77
2022/10/16 08:08:56;;;;;;;7.50;6.30;;;;;;;17.90;49.88;98315.93;107863;1268;69272;-77
2022/10/16 08:11:24;;;;;;;7.30;6.10;;;;;;;18.11;49.20;98314.36;107879;1268;59825;-76
2022/10/16 08:13:53;;;;;;;6.80;6.10;;;;;;;18.36;49.01;98315.71;107881;1267;59711;-76
2022/10/16 08:16:21;;;;;;;7.50;6.00;;;;;;;18.66;48.36;98320.50;107897;1264;70552;-75
2022/10/16 08:18:51;;;;;;;6.80;5.90;;;;;;;19.52;47.06;98324.95;107747;1267;69948;-75
2022/10/16 08:21:22;;;;;;;6.70;5.50;;;;;;;20.31;46.53;98318.73;107825;1267;69724;-75
2022/10/16 08:23:53;;;;;;;6.30;5.60;;;;;;;21.44;46.45;98317.80;107849;1265;59714;-75
2022/10/16 08:26:27;;;;;;;6.80;5.90;;;;;;;21.27;42.13;98320.77;108029;1263;59699;-74
2022/10/16 08:28:56;;;;;;;7.00;6.30;;;;;;;20.99;43.46;98318.83;107819;1267;70456;-75
2022/10/16 08:31:26;;;;;;;7.60;6.80;;;;;;;20.75;43.21;98317.17;107894;1266;68273;-75
2022/10/16 08:33:55;;;;;;;6.80;6.10;;;;;;;20.33;43.59;98317.11;107878;1268;69291;-75
2022/10/16 08:36:24;;;;;;;7.30;6.00;;;;;;;20.68;42.90;98321.21;107656;1266;59746;-75
2022/10/16 08:38:54;;;;;;;7.30;5.90;;;;;;;20.31;43.64;98322.24;107886;1264;60044;-76
2022/10/16 08:41:31;;;;;;;6.60;5.90;;;;;;;20.01;44.48;98317.90;108106;1267;71390;-74
2022/10/16 08:44:18;;;;;;;6.60;5.90;;;;;;;20.24;43.63;98320.09;108126;1264;69239;-75
2022/10/16 08:46:55;;;;;;;7.30;6.40;;;;;;;20.58;42.60;98319.63;108061;1266;69272;-74
2022/10/16 08:49:24;;;;;;;7.90;7.00;;;;;;;20.15;43.46;98322.02;108117;1264;59758;-74
2022/10/16 08:51:55;;;;;;;7.10;6.00;;;;;;;20.57;42.70;98319.48;107891;1267;59694;-75
2022/10/16 08:54:43;;;;;;;8.30;6.20;;;;;;;20.71;42.35;98321.29;107903;1266;72037;-74
2022/10/16 08:57:17;;;;;;;7.10;6.10;;;;;;;21.96;41.27;98326.38;108019;1266;68317;-76
2022/10/16 08:59:54;;;;;;;6.70;6.10;;;;;;;22.13;40.19;98323.87;107684;1266;69869;-75
2022/10/16 09:02:37;;;;;;;8.50;6.40;;;;;;;22.51;38.70;98319.24;107668;1267;60137;-75
2022/10/16 09:05:23;;;;;;;6.40;5.70;;;;;;;22.70;38.07;98319.05;107930;1266;59769;-74
2022/10/16 09:08:08;;;;;;;6.30;5.70;;;;;;;23.35;37.09;98327.21;107957;1267;72120;-75
2022/10/16 09:10:46;;;;;;;7.30;6.60;;;;;;;23.00;35.42;98324.30;108118;1264;69915;-75
2022/10/16 09:13:57;;;;;;;7.30;6.60;;;;;;;23.54;36.41;98330.03;107909;1267;70030;-76
2022/10/16 09:16:41;;;;;;;7.00;6.10;;;;;;;22.32;37.04;98328.73;107924;1267;59694;-75
2022/10/16 09:19:38;;;;;;;6.00;5.30;;;;;;;22.00;38.56;98327.60;107753;1266;59660;-76
2022/10/16 09:22:28;;;;;;;7.50;6.10;;;;;;;22.98;37.61;98332.52;107922;1263;71992;-73
2022/10/16 09:25:10;;;;;;;7.30;6.60;;;;;;;23.37;35.80;98332.34;107954;1267;69973;-75
2022/10/16 09:27:39;;;;;;;7.80;6.90;;;;;;;22.79;36.17;98330.86;107801;1267;69313;-74
2022/10/16 09:30:19;;;;;;;7.20;5.60;;;;;;;22.89;35.83;98328.90;107821;1267;59742;-76
2022/10/16 09:32:52;;;;;;;6.30;5.10;;;;;;;22.96;37.47;98334.34;107751;1263;59790;-75
2022/10/16 09:35:27;;;;;;;6.40;5.60;;;;;;;23.63;36.91;98333.48;107921;1266;71123;-77
2022/10/16 09:37:56;;;;;;;6.00;5.40;;;;;;;24.99;35.18;98331.77;107864;1267;69272;-76
2022/10/16 09:40:36;;;;;;;6.50;5.10;;;;;;;25.62;34.36;98331.23;107720;1263;68821;-75
2022/10/16 09:43:32;;;;;;;6.00;5.30;;;;;;;26.40;33.84;98328.55;108215;1261;59702;-73
2022/10/16 09:46:02;;;;;;;7.20;5.80;;;;;;;26.93;31.74;98325.56;107951;1272;59678;-74
2022/10/16 09:48:39;;;;;;;6.90;5.90;;;;;;;27.00;30.70;98326.24;107879;1267;71669;-75
2022/10/16 09:51:20;;;;;;;6.60;5.90;;;;;;;25.80;32.39;98325.15;107664;1267;69681;-75
2022/10/16 09:53:49;;;;;;;7.70;5.80;;;;;;;26.51;31.35;98319.42;107826;1267;68503;-74
2022/10/16 09:56:26;;;;;;;6.00;5.40;;;;;;;26.49;31.14;98318.88;107641;1267;59694;-75
2022/10/16 09:58:58;;;;;;;6.20;5.60;;;;;;;25.67;32.62;98317.44;107887;1267;59667;-75
2022/10/16 10:01:45;;;;;;;6.60;5.90;;;;;;;25.44;32.20;98315.96;107858;1267;70625;-74
2022/10/16 10:04:25;;;;;;;10.10;7.30;;;;;;;26.01;30.90;98318.87;107963;1267;69330;-73
2022/10/16 10:06:58;;;;;;;6.80;6.10;;;;;;;26.19;31.16;98317.52;107814;1267;69301;-73
2022/10/16 10:09:33;;;;;;;6.50;5.80;;;;;;;26.16;31.12;98319.70;107761;1266;59680;-74
2022/10/16 10:12:03;;;;;;;7.80;6.20;;;;;;;26.27;31.24;98318.13;108133;1267;59700;-75
2022/10/16 10:14:37;;;;;;;8.10;6.70;;;;;;;26.24;30.57;98317.42;108119;1266;71436;-72
2022/10/16 10:17:05;;;;;;;6.40;5.80;;;;;;;25.85;31.65;98318.50;108079;1263;68486;-74
2022/10/16 10:19:43;;;;;;;8.00;6.50;;;;;;;26.09;31.54;98316.63;107921;1266;69696;-74
2022/10/16 10:22:31;;;;;;;9.30;7.60;;;;;;;26.43;31.44;98310.68;107843;1264;59695;-73
2022/10/16 10:25:09;;;;;;;8.60;6.70;;;;;;;25.64;31.58;98312.86;108121;1267;59652;-74
2022/10/16 10:27:50;;;;;;;9.30;8.40;;;;;;;24.07;34.18;98308.39;108032;1267;72049;-72
2022/10/16 10:30:25;;;;;;;7.50;6.20;;;;;;;24.62;34.42;98305.86;107850;1267;68448;-73
2022/10/16 10:33:28;;;;;;;7.80;7.00;;;;;;;24.76;35.54;98299.61;107899;1263;69229;-74
2022/10/16 10:36:04;;;;;;;7.10;6.20;;;;;;;25.44;34.08;98300.70;108039;1262;59692;-73
2022/10/16 10:39:08;;;;;;;7.50;6.50;;;;;;;25.85;33.05;98299.20;107839;1267;59686;-73
2022/10/16 10:41:40;;;;;;;8.90;7.10;;;;;;;27.14;32.04;98292.32;107823;1267;70640;-74
2022/10/16 10:44:18;;;;;;;7.90;7.10;;;;;;;28.13;29.88;98283.88;107781;1267;68663;-75
2022/10/16 10:47:08;;;;;;;7.10;6.40;;;;;;;27.96;28.92;98285.05;108067;1266;67946;-73
2022/10/16 10:49:48;;;;;;;8.30;7.40;;;;;;;27.52;29.25;98283.38;107894;1267;59709;-73
2022/10/16 10:52:51;;;;;;;8.80;7.90;;;;;;;27.38;29.68;98277.00;107984;1262;59688;-73
2022/10/16 10:55:48;;;;;;;7.70;6.60;;;;;;;27.03;30.96;98273.31;107908;1267;72008;-73
2022/10/16 10:58:47;;;;;;;7.60;6.90;;;;;;;27.11;29.60;98272.88;107840;1267;69890;-73
2022/10/16 11:01:26;;;;;;;9.20;7.50;;;;;;;26.22;31.16;98268.14;107805;1264;69851;-73
2022/10/16 11:04:10;;;;;;;7.50;6.80;;;;;;;26.22;31.30;98271.67;107839;1267;59714;-74
2022/10/16 11:07:02;;;;;;;6.60;5.60;;;;;;;26.40;31.94;98265.98;107744;1263;59705;-75
2022/10/16 11:09:46;;;;;;;6.70;5.10;;;;;;;27.37;30.30;98266.94;107721;1263;72020;-74
2022/10/16 11:12:27;;;;;;;5.90;5.30;;;;;;;27.29;30.45;98266.45;107869;1267;69843;-74
2022/10/16 11:15:05;;;;;;;5.00;4.00;;;;;;;27.86;29.39;98262.88;108153;1267;69534;-74
2022/10/16 11:17:39;;;;;;;7.70;5.70;;;;;;;28.62;27.76;98256.80;107828;1263;60057;-73
2022/10/16 11:20:16;;;;;;;5.40;4.90;;;;;;;28.44;28.84;98258.66;107889;1257;59698;-74
2022/10/16 11:22:48;;;;;;;5.70;5.10;;;;;;;28.54;28.30;98259.02;107716;1266;71501;-74
2022/10/16 11:25:16;;;;;;;5.80;5.10;;;;;;;28.23;28.53;98262.69;107683;1264;68728;-73
2022/10/16 11:27:49;;;;;;;4.80;4.30;;;;;;;28.99;27.27;98265.32;107823;1263;68717;-75
2022/10/16 11:30:19;;;;;;;6.00;5.40;;;;;;;28.76;27.29;98265.22;107768;1267;59772;-75
2022/10/16 11:33:12;;;;;;;6.10;5.10;;;;;;;28.35;27.80;98264.65;107977;1263;59719;-74
2022/10/16 11:35:47;;;;;;;4.50;4.10;;;;;;;27.99;28.48;98265.65;107917;1259;72432;-74
2022/10/16 11:38:34;;;;;;;5.60;4.00;;;;;;;28.91;26.56;98261.86;107942;1267;69778;-75
2022/10/16 11:41:27;;;;;;;5.80;4.70;;;;;;;29.60;25.61;98259.70;107912;1267;70026;-74
2022/10/16 11:44:20;;;;;;;5.10;4.40;;;;;;;29.03;26.60;98259.27;107881;1266;59701;-74
2022/10/16 11:47:14;;;;;;;5.60;5.00;;;;;;;29.67;25.92;98259.38;107854;1263;59772;-73
2022/10/16 11:50:21;;;;;;;5.10;4.30;;;;;;;29.92;25.05;98255.85;107777;1267;71751;-71
2022/10/16 11:53:13;;;;;;;7.10;4.80;;;;;;;29.73;25.84;98254.37;107852;1267;68747;-73